Main page
METAR-TAF:

METAR-TAF

Airports :

Gökçeada, Turkey

Gökçeada Airport

latitude: 40-12-04N, longitude: 25-52-56E, elevation: 22 m

Current weather observation

The report was made 10 hours and 22 minutes ago, at 12:50 UTC
Wind 12 kt from the South/Southwest
Temperature 14°C
Humidity 44%
Pressure 1014 hPa
Visibility 10 km or more
no clouds below 1500 m and no cumulonimbus

METAR: LTFK 191250Z 20012KT CAVOK 14/02 Q1014

Time: 02:12 (23:12 UTC)

Forecast

The report was made 9 hours and 32 minutes ago, at 13:40 UTC
Forecast valid from 19 at 15 UTC to 19 at 24 UTC
Wind 12 kt from the Southwest
Visibility 10 km or more
no clouds below 1500 m and no cumulonimbus

TAF: LTFK 191340Z 1915/1924 22012KT CAVOK

Weather observations and forecasts of more than 4000 airports (METAR and TAF reports).

The available stations are represented by yellow and red dots on the map.

Hover mouse over dot to see the name of the station.

Then click to see weather observations and forecasts.

To change the map : click on the green buttons with a black cross to zoom in, on the green button with a dash to zoom out, or on the green arrows for adjacent maps.


METAR-TAF: